Arbúcies





Hora UTC 05:30
Temperatura 13.7 ºC
Humedad 93.0 %
Presión 1024.0 hPa
Pluja 0.0 mm
Velocidad viento 8.8 km/h
Dirección viento SW
Radiación solar 87.9 W/m²

Datos diarios 2020-05-30



Hora UTC (invierno +1h; verano +2h)
Temperatura (ºC) Humedad (%) Presión (hPa) Velocidad viento (km/h) Precipitación (mm) Radiación solar (W/m²)
Hora UTC Aire Humedad Presión Vel. Dir. Vel. Max Dir. Intent. máx 5 min. Rad. Sol.
00:05 13.0 92.5 1025.0 10.5 SSW 15.2 SSW 0.0 0.0
00:10 13.0 92.5 1025.0 9.8 SSW 13.4 SW 0.0 0.0
00:15 13.1 92.6 1025.0 9.3 SSW 13.4 SW 0.0 0.0
00:20 13.2 92.4 1025.0 10.1 SSW 14.1 SSW 0.0 0.0
00:25 13.2 92.2 1025.0 10.9 SSW 15.9 SW 0.0 0.0
00:30 13.2 92.1 1025.0 10.2 SSW 14.1 SW 0.0 0.0
00:35 13.3 92.2 1025.0 10.7 SSW 16.6 SSW 0.0 0.0
00:40 13.5 92.0 1025.0 12.1 SSW 16.6 SSW 0.0 0.0
00:45 13.5 91.8 1025.0 9.6 SSW 15.2 SSW 0.0 0.0
00:50 13.5 91.6 1025.0 6.7 SW 10.6 SSW 0.0 0.0
00:55 13.3 91.5 1025.0 5.5 SW 8.5 WSW 0.0 0.0
01:00 13.3 91.8 1025.0 6.2 SSW 8.5 SSW 0.0 0.0
01:05 13.2 92.0 1025.0 7.1 SSW 10.2 WSW 0.0 0.0
01:10 13.2 92.1 1025.0 8.2 SW 13.1 SSW 0.0 0.0
01:15 13.2 92.2 1025.0 7.6 SW 11.3 SW 0.0 0.0
01:20 13.2 92.3 1025.0 7.9 SW 11.3 SW 0.0 0.0
01:25 13.2 92.5 1025.0 7.4 SW 13.1 SW 0.0 0.0
01:30 13.2 92.4 1025.0 5.3 SW 7.8 WSW 0.0 0.0
01:35 13.2 92.4 1025.0 5.1 SSW 7.4 WSW 0.0 0.0
01:40 13.2 92.5 1025.0 5.0 SSW 7.1 SW 0.0 0.0
01:45 13.3 92.7 1025.0 6.4 SSW 8.8 SSW 0.0 0.0
01:50 13.3 92.6 1025.0 6.0 SW 7.8 SSW 0.0 0.0
01:55 13.3 92.7 1025.0 6.2 SW 9.2 SW 0.0 0.1
02:00 13.4 92.8 1025.0 8.3 SSW 14.1 WSW 0.0 0.6
02:05 13.4 92.7 1026.0 6.4 SSW 10.6 SW 0.0 0.6
02:10 13.5 92.7 1025.0 6.4 SSW 11.3 SW 0.0 0.6
02:15 13.6 92.6 1025.0 6.2 SSW 10.2 SSW 0.0 0.7
02:20 13.6 92.3 1025.0 7.2 SW 12.3 SSW 0.0 0.9
02:25 13.7 92.0 1025.0 9.3 SW 14.5 SW 0.0 1.0
02:30 13.8 91.9 1025.0 8.3 SW 12.0 SSW 0.0 0.9
02:35 13.8 91.6 1025.0 7.5 SSW 13.4 SSW 0.0 1.0
02:40 13.9 91.4 1025.0 6.7 SSW 9.9 SSW 0.0 1.2
02:45 14.0 91.2 1025.0 5.2 SW 8.8 SW 0.0 0.9
02:50 14.0 91.3 1025.0 6.1 SW 13.4 WSW 0.0 0.3
02:55 14.0 91.3 1025.0 9.3 SSW 12.0 SW 0.0 1.2
03:00 14.1 91.2 1025.0 8.6 SSW 11.6 SSW 0.0 0.8
03:05 14.1 91.2 1025.0 7.0 SSW 11.3 SW 0.0 0.8
03:10 14.2 91.1 1025.0 5.2 SSW 9.5 WSW 0.0 0.8
03:15 14.3 91.0 1025.0 8.0 WSW 11.6 WSW 0.0 1.0
03:20 14.4 90.7 1025.0 6.6 WSW 10.6 WSW 0.0 1.0
03:25 14.4 90.5 1025.0 3.7 WSW 7.8 WSW 0.0 0.2
03:30 14.4 90.4 1025.0 2.7 SW 6.7 SW 0.0 0.0
03:35 14.3 90.6 1025.0 3.6 SW 6.4 SW 0.0 0.0
03:40 14.3 90.6 1025.0 3.6 WSW 4.6 SW 0.0 0.0
03:45 14.2 90.8 1025.0 4.1 WSW 7.1 SW 0.0 0.0
03:50 14.1 91.2 1024.0 5.0 SW 7.8 SW 0.0 0.0
03:55 13.9 91.4 1024.0 6.0 SW 8.5 SW 0.0 0.0
04:00 13.9 91.7 1024.0 5.2 SSW 7.4 SSW 0.0 0.0
04:05 13.8 91.8 1025.0 2.8 WSW 6.4 SSW 0.0 0.0
04:10 13.6 91.9 1024.0 2.9 WSW 5.3 SW 0.0 0.0
04:15 13.5 92.2 1024.0 4.5 SW 9.9 SSW 0.0 0.5
04:20 13.4 92.5 1024.0 7.8 SW 9.9 SW 0.0 2.3
04:25 13.4 92.7 1024.0 6.5 SW 8.8 SW 0.0 3.9
04:30 13.3 92.9 1024.0 8.1 SW 10.6 SSW 0.0 6.4
04:35 13.3 93.2 1025.0 8.0 SW 10.2 SW 0.0 10.8
04:40 13.2 93.1 1024.0 5.8 SW 8.1 SW 0.0 14.5
04:45 13.1 93.2 1024.0 5.6 SSW 7.4 SW 0.0 20.1
04:50 13.2 93.6 1024.0 6.9 SSW 10.6 SW 0.0 24.5
04:55 13.4 93.8 1024.0 8.0 SSW 12.0 SW 0.0 27.7
05:00 13.4 93.6 1024.0 7.5 SW 10.9 SW 0.0 31.3
05:05 13.3 93.5 1025.0 7.9 SW 13.1 SW 0.0 37.3
05:10 13.4 93.6 1024.0 8.5 SW 13.1 WSW 0.0 50.8
05:15 13.5 93.7 1024.0 8.9 SW 12.3 SW 0.0 60.7
05:20 13.6 93.5 1024.0 7.9 SW 12.3 WSW 0.0 91.7
05:25 13.7 93.3 1024.0 9.0 SW 16.9 SW 0.0 75.7
05:30 13.7 93.0 1024.0 8.8 SW 15.2 WSW 0.0 87.9
Máxima 14.4 93.8 1026.0 12.1 SSW 16.9 SW 0.0 91.7
Mínima 13.0 90.4 1024.0
Total 0.0